Time;durP1;ratioP1;P1;durP2;ratioP2;P2;SDS_P1;SDS_P2;PMS_P1;PMS_P2;Temp;Humidity;BMP_temperature;BMP_pressure;BME280_temperature;BME280_humidity;BME280_pressure;Samples;Min_cycle;Max_cycle;Signal;HPM_P1;HPM_P2
2023/12/15 00:03:42;;;;;;;54.43;21.43;;;;;;;;;;10286249;28;20703;-83
2023/12/15 00:08:43;;;;;;;48.77;19.03;;;;;;;;;;10285544;28;20066;-81
2023/12/15 00:13:44;;;;;;;49.40;20.50;;;;;;;;;;10285181;28;20234;-82
2023/12/15 00:18:45;;;;;;;60.70;20.03;;;;;;;;;;10284546;28;20113;-82
2023/12/15 00:23:46;;;;;;;65.83;22.90;;;;;;;;;;10292453;28;20070;-81
2023/12/15 00:28:47;;;;;;;64.40;23.80;;;;;;;;;;10285434;28;20522;-81
2023/12/15 00:33:48;;;;;;;74.90;26.17;;;;;;;;;;10285324;28;20055;-81
2023/12/15 00:38:49;;;;;;;87.77;27.80;;;;;;;;;;10291349;28;20058;-82
2023/12/15 00:43:57;;;;;;;81.17;27.80;;;;;;;;;;10284735;28;20130;-81
2023/12/15 00:48:58;;;;;;;66.50;25.17;;;;;;;;;;10272750;28;20049;-81
2023/12/15 00:53:59;;;;;;;51.23;20.07;;;;;;;;;;10274422;28;20037;-82
2023/12/15 00:59:04;;;;;;;53.30;19.93;;;;;;;;;;10283922;28;20085;-80
2023/12/15 01:04:05;;;;;;;51.70;19.70;;;;;;;;;;10276721;28;20145;-81
2023/12/15 01:09:06;;;;;;;44.53;18.07;;;;;;;;;;10292056;28;20150;-80
2023/12/15 01:14:07;;;;;;;48.00;18.97;;;;;;;;;;10294364;28;20035;-80
2023/12/15 01:19:08;;;;;;;44.53;18.73;;;;;;;;;;10292139;28;20121;-81
2023/12/15 01:24:10;;;;;;;41.37;17.47;;;;;;;;;;10296106;28;20038;-82
2023/12/15 01:29:11;;;;;;;40.80;18.07;;;;;;;;;;10296247;28;20043;-81
2023/12/15 01:34:12;;;;;;;46.53;19.30;;;;;;;;;;10297322;28;20133;-82
2023/12/15 01:39:13;;;;;;;39.60;16.70;;;;;;;;;;10293079;28;20121;-81
2023/12/15 01:44:15;;;;;;;36.67;15.57;;;;;;;;;;10291934;28;20125;-81
2023/12/15 01:49:16;;;;;;;34.40;15.40;;;;;;;;;;10290601;28;20146;-81
2023/12/15 01:54:17;;;;;;;34.87;15.87;;;;;;;;;;10290786;28;20118;-82
2023/12/15 01:59:18;;;;;;;34.23;14.67;;;;;;;;;;10290221;28;20541;-82
2023/12/15 02:04:19;;;;;;;27.90;13.43;;;;;;;;;;10293082;28;20058;-82
2023/12/15 02:09:20;;;;;;;26.03;13.63;;;;;;;;;;10290164;28;20038;-81
2023/12/15 02:14:22;;;;;;;27.80;13.90;;;;;;;;;;10290213;28;20082;-81
2023/12/15 02:19:24;;;;;;;29.93;13.93;;;;;;;;;;10293731;28;20114;-82
2023/12/15 02:24:25;;;;;;;25.73;11.73;;;;;;;;;;10288764;28;20077;-82
2023/12/15 02:29:27;;;;;;;30.77;13.43;;;;;;;;;;10289208;28;20037;-81
2023/12/15 02:34:35;;;;;;;31.00;13.07;;;;;;;;;;10288270;28;20086;-82
2023/12/15 02:39:38;;;;;;;20.40;10.57;;;;;;;;;;10276436;28;20486;-80
2023/12/15 02:44:41;;;;;;;17.60;8.53;;;;;;;;;;10289753;28;20110;-81
2023/12/15 02:49:42;;;;;;;18.17;9.07;;;;;;;;;;10288181;28;20075;-81
2023/12/15 02:54:43;;;;;;;13.40;6.97;;;;;;;;;;10288196;28;20035;-80
2023/12/15 02:59:51;;;;;;;14.53;7.70;;;;;;;;;;10293615;28;20034;-81
2023/12/15 03:04:52;;;;;;;15.57;7.23;;;;;;;;;;10289878;28;20501;-81
2023/12/15 03:09:53;;;;;;;15.73;7.10;;;;;;;;;;10287903;28;20673;-80
2023/12/15 03:14:56;;;;;;;18.27;8.77;;;;;;;;;;10286408;28;20367;-82
2023/12/15 03:19:58;;;;;;;16.90;9.00;;;;;;;;;;10287550;28;20391;-81
2023/12/15 03:24:59;;;;;;;20.90;9.37;;;;;;;;;;10291800;28;20039;-81
2023/12/15 03:30:00;;;;;;;21.37;10.00;;;;;;;;;;10284138;28;20042;-81
2023/12/15 03:35:01;;;;;;;23.83;11.10;;;;;;;;;;10276190;28;20368;-82
2023/12/15 03:40:03;;;;;;;23.47;11.10;;;;;;;;;;10285655;28;20038;-81
2023/12/15 03:45:04;;;;;;;23.23;12.43;;;;;;;;;;10285758;28;20239;-81
2023/12/15 03:50:06;;;;;;;26.87;12.37;;;;;;;;;;10269181;28;20043;-82
2023/12/15 03:55:07;;;;;;;24.93;13.23;;;;;;;;;;10296447;28;20031;-81
2023/12/15 04:00:09;;;;;;;25.07;12.90;;;;;;;;;;10286159;28;20407;-82
2023/12/15 04:05:10;;;;;;;24.57;12.10;;;;;;;;;;10282268;28;20027;-82
2023/12/15 04:10:11;;;;;;;27.07;13.07;;;;;;;;;;10289279;28;20073;-81
2023/12/15 04:15:12;;;;;;;37.03;17.63;;;;;;;;;;10285137;28;20023;-80
2023/12/15 04:20:13;;;;;;;73.27;30.83;;;;;;;;;;10286386;28;20057;-82
2023/12/15 04:25:14;;;;;;;78.43;32.83;;;;;;;;;;10288069;28;20045;-82
2023/12/15 04:30:15;;;;;;;81.43;33.70;;;;;;;;;;10285206;28;20118;-82
2023/12/15 04:35:17;;;;;;;60.83;26.57;;;;;;;;;;10287230;28;20137;-81
2023/12/15 04:40:18;;;;;;;63.23;27.63;;;;;;;;;;10295575;28;20031;-82
2023/12/15 04:45:19;;;;;;;51.10;23.03;;;;;;;;;;10300483;28;20111;-82
2023/12/15 04:50:20;;;;;;;40.37;17.57;;;;;;;;;;10296731;28;20479;-82
2023/12/15 04:55:21;;;;;;;43.03;20.00;;;;;;;;;;10293432;28;20787;-82
2023/12/15 05:00:22;;;;;;;42.63;18.77;;;;;;;;;;10288987;28;20113;-82
2023/12/15 05:05:23;;;;;;;49.00;22.17;;;;;;;;;;10305674;28;20030;-81
2023/12/15 05:10:24;;;;;;;47.33;21.93;;;;;;;;;;10302760;28;20063;-79
2023/12/15 05:15:26;;;;;;;39.33;19.90;;;;;;;;;;10291702;28;20281;-79
2023/12/15 05:20:27;;;;;;;43.93;19.20;;;;;;;;;;10291493;28;20061;-80
2023/12/15 05:25:28;;;;;;;40.20;18.10;;;;;;;;;;10289161;28;20121;-82
2023/12/15 05:30:29;;;;;;;40.53;18.97;;;;;;;;;;10290370;28;20606;-82
2023/12/15 05:35:30;;;;;;;42.77;19.90;;;;;;;;;;10268474;28;20073;-81
2023/12/15 05:40:31;;;;;;;43.00;20.47;;;;;;;;;;10284482;28;20847;-82
2023/12/15 05:45:32;;;;;;;44.47;20.47;;;;;;;;;;10290177;28;20033;-81
2023/12/15 05:50:33;;;;;;;53.83;23.43;;;;;;;;;;10286203;28;20042;-82
2023/12/15 05:55:34;;;;;;;53.00;22.27;;;;;;;;;;10290544;28;20042;-82
2023/12/15 06:00:36;;;;;;;53.93;23.33;;;;;;;;;;10288530;28;20047;-81
2023/12/15 06:05:37;;;;;;;69.63;30.67;;;;;;;;;;10278826;28;20619;-82
2023/12/15 06:10:38;;;;;;;71.97;35.13;;;;;;;;;;10287079;28;20051;-81
2023/12/15 06:15:40;;;;;;;57.27;27.37;;;;;;;;;;10270485;28;20073;-81
2023/12/15 06:20:41;;;;;;;62.33;27.77;;;;;;;;;;10290423;28;20054;-82
2023/12/15 06:25:42;;;;;;;71.37;30.07;;;;;;;;;;10289909;28;20039;-81
2023/12/15 06:30:44;;;;;;;62.07;28.27;;;;;;;;;;10288622;28;20043;-82
2023/12/15 06:35:45;;;;;;;73.63;31.87;;;;;;;;;;10282975;28;20134;-82
2023/12/15 06:40:46;;;;;;;58.03;25.33;;;;;;;;;;10289118;28;20058;-81
2023/12/15 06:45:54;;;;;;;60.10;27.17;;;;;;;;;;10277075;28;20023;-81
2023/12/15 06:50:55;;;;;;;55.17;26.20;;;;;;;;;;10271605;28;20042;-82
2023/12/15 06:55:58;;;;;;;54.03;25.10;;;;;;;;;;10288130;28;20035;-81
2023/12/15 07:00:59;;;;;;;65.20;28.33;;;;;;;;;;10274464;28;20411;-82
2023/12/15 07:06:01;;;;;;;54.80;23.93;;;;;;;;;;10284568;28;20046;-81
2023/12/15 07:11:02;;;;;;;50.57;24.07;;;;;;;;;;10281847;28;20030;-81
2023/12/15 07:16:03;;;;;;;65.20;30.67;;;;;;;;;;10276457;28;20442;-81
2023/12/15 07:21:05;;;;;;;60.53;29.13;;;;;;;;;;10287593;28;20031;-81
2023/12/15 07:26:06;;;;;;;84.67;34.83;;;;;;;;;;10285849;28;20038;-81
2023/12/15 07:31:07;;;;;;;66.57;31.30;;;;;;;;;;10260322;28;20079;-82
2023/12/15 07:36:09;;;;;;;68.67;31.47;;;;;;;;;;10267745;28;20041;-81
2023/12/15 07:41:11;;;;;;;69.87;33.87;;;;;;;;;;10286081;28;20034;-82
2023/12/15 07:46:18;;;;;;;60.33;28.27;;;;;;;;;;10286122;28;20489;-81
2023/12/15 07:51:20;;;;;;;60.80;29.07;;;;;;;;;;10279067;28;20051;-82
2023/12/15 07:56:22;;;;;;;63.10;30.67;;;;;;;;;;10261016;28;20407;-82
2023/12/15 08:01:31;;;;;;;60.97;28.87;;;;;;;;;;10284943;28;20023;-81
2023/12/15 08:06:33;;;;;;;58.50;27.70;;;;;;;;;;10281769;28;20086;-83
2023/12/15 08:11:34;;;;;;;61.60;27.93;;;;;;;;;;10280237;28;20077;-81
2023/12/15 08:16:35;;;;;;;60.13;30.00;;;;;;;;;;10283978;28;20039;-81
2023/12/15 08:21:36;;;;;;;60.80;30.23;;;;;;;;;;10281293;28;20687;-81
2023/12/15 08:26:37;;;;;;;70.67;32.87;;;;;;;;;;10261558;28;20039;-82
2023/12/15 08:31:39;;;;;;;78.70;37.27;;;;;;;;;;10279761;28;20062;-81
2023/12/15 08:36:40;;;;;;;86.27;44.87;;;;;;;;;;10282748;28;20030;-81
2023/12/15 08:41:41;;;;;;;67.10;33.33;;;;;;;;;;10284371;28;20490;-81
2023/12/15 08:46:42;;;;;;;111.17;51.60;;;;;;;;;;10260146;28;20447;-81
2023/12/15 08:51:43;;;;;;;76.87;37.33;;;;;;;;;;10280243;28;20054;-82
2023/12/15 08:56:44;;;;;;;83.23;37.77;;;;;;;;;;10276217;28;20098;-81
2023/12/15 09:01:52;;;;;;;78.93;36.90;;;;;;;;;;10276204;28;20082;-81
2023/12/15 09:06:53;;;;;;;78.80;38.03;;;;;;;;;;10285595;28;20031;-81
2023/12/15 09:11:54;;;;;;;86.87;41.37;;;;;;;;;;10284329;28;20042;-81
2023/12/15 09:16:55;;;;;;;96.13;46.07;;;;;;;;;;10282331;28;20085;-81
2023/12/15 09:21:56;;;;;;;89.57;43.87;;;;;;;;;;10285039;28;20053;-81
2023/12/15 09:26:57;;;;;;;86.77;41.33;;;;;;;;;;10287911;28;20035;-81
2023/12/15 09:31:59;;;;;;;80.57;38.27;;;;;;;;;;10289324;28;20786;-80
2023/12/15 09:37:00;;;;;;;91.97;48.73;;;;;;;;;;10291403;28;20027;-81
2023/12/15 09:42:01;;;;;;;83.03;40.27;;;;;;;;;;10287047;28;20130;-80
2023/12/15 09:47:03;;;;;;;86.30;42.37;;;;;;;;;;10291906;28;20035;-81
2023/12/15 09:52:11;;;;;;;86.30;40.50;;;;;;;;;;10291753;28;20081;-81
2023/12/15 09:57:13;;;;;;;77.57;37.00;;;;;;;;;;10291043;28;20141;-79
2023/12/15 10:02:14;;;;;;;81.53;39.67;;;;;;;;;;10278666;28;20039;-81
2023/12/15 10:07:15;;;;;;;76.93;39.53;;;;;;;;;;10275694;28;20034;-80
2023/12/15 10:12:16;;;;;;;74.20;35.20;;;;;;;;;;10290386;28;20039;-80
2023/12/15 10:17:17;;;;;;;73.13;33.70;;;;;;;;;;10290766;28;20030;-80
2023/12/15 10:22:19;;;;;;;68.33;32.33;;;;;;;;;;10289748;28;20034;-81
2023/12/15 10:27:20;;;;;;;46.73;22.93;;;;;;;;;;10288593;28;20089;-81
2023/12/15 10:32:21;;;;;;;50.70;23.13;;;;;;;;;;10289123;28;20057;-83
2023/12/15 10:37:22;;;;;;;48.03;22.60;;;;;;;;;;10288804;28;20161;-81
2023/12/15 10:42:24;;;;;;;45.60;23.00;;;;;;;;;;10287699;28;20121;-80
2023/12/15 10:47:26;;;;;;;48.97;23.30;;;;;;;;;;10288019;28;20109;-80
2023/12/15 10:52:27;;;;;;;56.13;26.80;;;;;;;;;;10288359;28;20465;-80
2023/12/15 10:57:28;;;;;;;50.10;23.73;;;;;;;;;;10284307;28;20035;-80
2023/12/15 11:02:31;;;;;;;40.50;20.90;;;;;;;;;;10287854;28;20037;-80
2023/12/15 11:07:32;;;;;;;44.60;22.93;;;;;;;;;;10269845;28;20062;-82
2023/12/15 11:12:38;;;;;;;45.30;21.17;;;;;;;;;;10269676;28;20077;-80
2023/12/15 11:17:41;;;;;;;42.67;22.77;;;;;;;;;;10285314;28;20043;-79
2023/12/15 11:22:52;;;;;;;43.97;20.90;;;;;;;;;;10278807;28;20030;-80
2023/12/15 11:28:07;;;;;;;44.53;21.17;;;;;;;;;;10282302;28;20034;-79
2023/12/15 11:33:32;;;;;;;34.70;18.42;;;;;;;;;;10285380;28;20051;-81
2023/12/15 11:38:34;;;;;;;32.50;16.63;;;;;;;;;;10280090;28;20038;-80
2023/12/15 11:43:36;;;;;;;43.10;19.90;;;;;;;;;;10283882;28;20489;-80
2023/12/15 11:48:37;;;;;;;56.67;24.93;;;;;;;;;;10281159;28;20042;-80
2023/12/15 11:53:47;;;;;;;37.87;18.00;;;;;;;;;;10277675;28;20041;-80
2023/12/15 11:58:48;;;;;;;30.93;15.33;;;;;;;;;;10284459;28;20034;-80
2023/12/15 12:03:49;;;;;;;62.13;28.17;;;;;;;;;;10277986;28;20039;-80
2023/12/15 12:08:50;;;;;;;44.10;20.87;;;;;;;;;;10284575;28;20645;-80
2023/12/15 12:14:02;;;;;;;54.00;26.00;;;;;;;;;;10285124;28;20750;-79
2023/12/15 12:19:03;;;;;;;88.80;39.17;;;;;;;;;;10278733;28;20117;-82
2023/12/15 12:24:04;;;;;;;79.17;36.50;;;;;;;;;;10282341;28;20097;-80
2023/12/15 12:29:06;;;;;;;80.83;35.23;;;;;;;;;;10280069;28;20062;-79
2023/12/15 12:34:07;;;;;;;128.13;52.60;;;;;;;;;;10283178;28;20117;-80
2023/12/15 12:39:08;;;;;;;95.27;40.03;;;;;;;;;;10283661;28;20035;-81
2023/12/15 12:44:09;;;;;;;91.50;40.23;;;;;;;;;;10281385;28;20034;-81
2023/12/15 12:49:10;;;;;;;94.10;41.63;;;;;;;;;;10281347;28;20037;-82
2023/12/15 12:54:12;;;;;;;79.87;35.10;;;;;;;;;;10283151;28;20039;-83
2023/12/15 12:59:13;;;;;;;84.40;38.90;;;;;;;;;;10286375;28;20348;-81
2023/12/15 13:04:14;;;;;;;74.47;34.87;;;;;;;;;;10279622;28;20122;-80
2023/12/15 13:09:18;;;;;;;70.83;33.27;;;;;;;;;;10288941;28;20554;-81
2023/12/15 13:14:19;;;;;;;68.50;30.97;;;;;;;;;;10286363;28;20082;-80
2023/12/15 13:19:20;;;;;;;59.60;26.80;;;;;;;;;;10285580;28;20046;-80
2023/12/15 13:24:21;;;;;;;54.47;26.93;;;;;;;;;;10296246;28;20039;-79
2023/12/15 13:29:23;;;;;;;55.17;27.30;;;;;;;;;;10307225;28;20413;-80
2023/12/15 13:34:25;;;;;;;62.90;29.80;;;;;;;;;;10303625;28;20086;-81
2023/12/15 13:39:26;;;;;;;55.10;28.93;;;;;;;;;;10291714;28;20023;-82
2023/12/15 13:44:27;;;;;;;81.03;33.50;;;;;;;;;;10290790;28;20141;-80
2023/12/15 13:49:34;;;;;;;83.40;33.50;;;;;;;;;;10287329;28;20062;-82
2023/12/15 13:54:36;;;;;;;92.23;36.87;;;;;;;;;;10270295;28;20474;-83
2023/12/15 13:59:37;;;;;;;90.57;37.00;;;;;;;;;;10285611;28;20037;-81
2023/12/15 14:04:38;;;;;;;89.13;37.67;;;;;;;;;;10286266;28;20750;-82
2023/12/15 14:09:39;;;;;;;100.23;45.07;;;;;;;;;;10311863;28;20128;-79
2023/12/15 14:14:48;;;;;;;132.63;55.27;;;;;;;;;;10291508;28;20110;-80
2023/12/15 14:19:50;;;;;;;99.80;46.10;;;;;;;;;;10287727;28;20475;-82
2023/12/15 14:24:51;;;;;;;89.87;40.70;;;;;;;;;;10290257;28;20030;-83
2023/12/15 14:29:52;;;;;;;86.67;40.37;;;;;;;;;;10290628;28;20121;-81
2023/12/15 14:34:53;;;;;;;89.47;43.27;;;;;;;;;;10288359;28;20143;-81
2023/12/15 14:39:54;;;;;;;111.43;47.87;;;;;;;;;;10276284;28;20031;-80
2023/12/15 14:44:55;;;;;;;99.70;46.43;;;;;;;;;;10298569;28;20034;-81
2023/12/15 14:49:56;;;;;;;164.40;69.63;;;;;;;;;;10279760;28;20509;-83
2023/12/15 14:54:58;;;;;;;103.23;43.60;;;;;;;;;;10292595;28;20037;-81
2023/12/15 14:59:59;;;;;;;120.63;48.97;;;;;;;;;;10266644;28;20026;-81
2023/12/15 15:05:03;;;;;;;116.10;50.90;;;;;;;;;;10305800;28;20041;-81
2023/12/15 15:10:04;;;;;;;122.47;62.43;;;;;;;;;;10289801;28;20751;-79
2023/12/15 15:15:06;;;;;;;164.10;88.90;;;;;;;;;;10284088;28;20062;-80
2023/12/15 15:20:08;;;;;;;150.73;72.40;;;;;;;;;;10295415;28;20146;-80
2023/12/15 15:25:09;;;;;;;129.07;59.97;;;;;;;;;;10270270;28;20039;-79
2023/12/15 15:30:10;;;;;;;112.93;53.90;;;;;;;;;;10293197;28;20101;-79
2023/12/15 15:35:12;;;;;;;119.13;57.20;;;;;;;;;;10288382;28;20051;-79
2023/12/15 15:40:13;;;;;;;139.60;64.57;;;;;;;;;;10288709;28;20160;-80
2023/12/15 15:45:14;;;;;;;114.20;53.70;;;;;;;;;;10286365;28;20064;-80
2023/12/15 15:50:15;;;;;;;102.40;53.20;;;;;;;;;;10283979;28;20069;-78
2023/12/15 15:55:16;;;;;;;104.40;50.53;;;;;;;;;;10285566;28;20046;-79
2023/12/15 16:00:18;;;;;;;144.60;73.17;;;;;;;;;;10292848;28;20130;-77
2023/12/15 16:05:19;;;;;;;135.33;70.10;;;;;;;;;;10279485;28;20045;-80
2023/12/15 16:10:20;;;;;;;118.37;64.13;;;;;;;;;;10291740;28;20050;-79
2023/12/15 16:15:21;;;;;;;157.70;79.93;;;;;;;;;;10286648;28;20119;-81
2023/12/15 16:20:22;;;;;;;141.77;76.83;;;;;;;;;;10285847;28;20590;-79
2023/12/15 16:25:23;;;;;;;139.87;77.50;;;;;;;;;;10285780;28;20114;-79
2023/12/15 16:30:24;;;;;;;151.10;80.80;;;;;;;;;;10283841;28;20038;-79
2023/12/15 16:35:26;;;;;;;172.73;83.93;;;;;;;;;;10293263;28;20134;-78
2023/12/15 16:40:27;;;;;;;205.70;93.43;;;;;;;;;;10291543;28;20027;-79
2023/12/15 16:45:28;;;;;;;218.40;99.60;;;;;;;;;;10297907;28;20030;-79
2023/12/15 16:50:30;;;;;;;217.60;100.60;;;;;;;;;;10297974;28;20035;-78
2023/12/15 16:55:31;;;;;;;446.83;215.97;;;;;;;;;;10297174;28;20034;-77
2023/12/15 17:00:32;;;;;;;381.80;186.07;;;;;;;;;;10288093;28;20467;-79
2023/12/15 17:05:33;;;;;;;392.03;204.20;;;;;;;;;;10295472;28;20034;-78
2023/12/15 17:10:41;;;;;;;291.77;144.10;;;;;;;;;;10293495;28;20190;-78
2023/12/15 17:15:43;;;;;;;285.83;149.17;;;;;;;;;;10288552;28;20129;-79
2023/12/15 17:20:44;;;;;;;311.70;159.30;;;;;;;;;;10312976;28;20377;-79
2023/12/15 17:25:45;;;;;;;331.07;170.10;;;;;;;;;;10297806;28;20050;-79
2023/12/15 17:30:47;;;;;;;257.40;129.00;;;;;;;;;;10293006;28;20188;-79
2023/12/15 17:35:48;;;;;;;288.27;145.67;;;;;;;;;;10296563;28;20434;-78
2023/12/15 17:40:50;;;;;;;204.77;107.87;;;;;;;;;;10301924;28;20481;-78
2023/12/15 17:45:51;;;;;;;145.80;74.80;;;;;;;;;;10296009;28;20034;-78
2023/12/15 17:50:52;;;;;;;174.03;88.73;;;;;;;;;;10300209;28;20034;-78
2023/12/15 17:55:54;;;;;;;151.27;80.63;;;;;;;;;;10296756;28;20030;-79
2023/12/15 18:00:55;;;;;;;173.20;88.33;;;;;;;;;;10290216;28;20384;-81
2023/12/15 18:05:56;;;;;;;163.97;84.77;;;;;;;;;;10290464;28;20038;-79
2023/12/15 18:10:57;;;;;;;153.97;82.30;;;;;;;;;;10282215;28;20078;-80
2023/12/15 18:15:58;;;;;;;144.63;76.97;;;;;;;;;;10279074;28;20495;-80
2023/12/15 18:21:02;;;;;;;151.97;80.63;;;;;;;;;;10292099;28;20772;-82
2023/12/15 18:26:03;;;;;;;156.37;81.83;;;;;;;;;;10290733;28;20066;-82
2023/12/15 18:31:04;;;;;;;153.20;82.60;;;;;;;;;;10276544;28;20027;-80
2023/12/15 18:36:08;;;;;;;175.67;87.93;;;;;;;;;;10292175;28;20144;-79
2023/12/15 18:41:22;;;;;;;184.53;95.80;;;;;;;;;;10284092;28;20054;-80
2023/12/15 18:46:24;;;;;;;183.47;91.97;;;;;;;;;;10288139;28;20031;-80
2023/12/15 18:51:25;;;;;;;207.40;103.67;;;;;;;;;;10304005;28;20042;-79
2023/12/15 18:56:26;;;;;;;242.00;118.93;;;;;;;;;;10288659;28;20037;-80
2023/12/15 19:01:30;;;;;;;217.53;107.13;;;;;;;;;;10287604;28;20117;-79
2023/12/15 19:06:31;;;;;;;188.03;95.37;;;;;;;;;;10300955;28;20053;-79
2023/12/15 19:11:35;;;;;;;169.30;86.47;;;;;;;;;;10284070;28;20042;-80
2023/12/15 19:16:36;;;;;;;158.47;83.07;;;;;;;;;;10280715;28;20806;-79
2023/12/15 19:21:37;;;;;;;151.03;78.60;;;;;;;;;;10298351;28;20026;-80
2023/12/15 19:26:40;;;;;;;158.10;78.83;;;;;;;;;;10280577;28;20035;-80
2023/12/15 19:31:41;;;;;;;140.87;75.57;;;;;;;;;;10285714;28;20042;-79
2023/12/15 19:36:42;;;;;;;150.77;74.23;;;;;;;;;;10287074;28;20071;-79
2023/12/15 19:41:45;;;;;;;149.50;75.40;;;;;;;;;;10296894;28;20030;-78
2023/12/15 19:46:46;;;;;;;136.53;68.80;;;;;;;;;;10290571;28;20960;-80
2023/12/15 19:51:48;;;;;;;136.77;66.60;;;;;;;;;;10285208;28;20050;-80
2023/12/15 19:56:50;;;;;;;174.50;94.27;;;;;;;;;;10285138;28;20062;-80
2023/12/15 20:01:52;;;;;;;196.10;105.90;;;;;;;;;;10283674;28;20398;-80
2023/12/15 20:06:53;;;;;;;148.23;76.90;;;;;;;;;;10276810;28;20030;-80
2023/12/15 20:11:55;;;;;;;147.27;73.13;;;;;;;;;;10284863;28;20077;-80
2023/12/15 20:17:02;;;;;;;144.80;69.43;;;;;;;;;;10286338;28;20066;-79
2023/12/15 20:22:03;;;;;;;136.17;68.27;;;;;;;;;;10292803;28;20023;-79
2023/12/15 20:27:10;;;;;;;159.20;78.40;;;;;;;;;;10298630;28;20239;-79
2023/12/15 20:32:18;;;;;;;156.73;80.20;;;;;;;;;;10287296;28;20474;-80
2023/12/15 20:37:27;;;;;;;144.87;73.77;;;;;;;;;;10288248;28;20138;-80
2023/12/15 20:42:40;;;;;;;137.87;68.23;;;;;;;;;;10284693;28;20045;-79
2023/12/15 20:47:41;;;;;;;140.50;67.70;;;;;;;;;;10278534;28;20128;-79
2023/12/15 20:52:44;;;;;;;141.73;68.83;;;;;;;;;;10286301;28;20047;-79
2023/12/15 20:57:45;;;;;;;147.03;67.70;;;;;;;;;;10267700;28;20107;-80
2023/12/15 21:02:46;;;;;;;143.30;69.13;;;;;;;;;;10285753;28;20481;-80
2023/12/15 21:07:47;;;;;;;141.33;68.43;;;;;;;;;;10284406;28;20114;-79
2023/12/15 21:12:48;;;;;;;145.40;65.90;;;;;;;;;;10283510;28;20070;-80
2023/12/15 21:17:51;;;;;;;133.80;63.07;;;;;;;;;;10272908;28;20090;-79
2023/12/15 21:22:52;;;;;;;128.97;60.67;;;;;;;;;;10298966;28;20050;-79
2023/12/15 21:27:53;;;;;;;126.63;62.60;;;;;;;;;;10295738;28;20118;-79
2023/12/15 21:33:00;;;;;;;126.20;61.80;;;;;;;;;;10293888;28;20145;-80
2023/12/15 21:38:02;;;;;;;122.53;60.07;;;;;;;;;;10291439;28;20018;-79
2023/12/15 21:43:07;;;;;;;117.63;56.87;;;;;;;;;;10290611;28;20501;-79
2023/12/15 21:48:08;;;;;;;114.37;56.77;;;;;;;;;;10297945;28;20030;-79
2023/12/15 21:53:10;;;;;;;129.37;62.00;;;;;;;;;;10295677;28;20117;-79
2023/12/15 21:58:11;;;;;;;126.80;59.77;;;;;;;;;;10305806;28;20030;-80
2023/12/15 22:03:12;;;;;;;129.53;61.93;;;;;;;;;;10294187;28;20035;-79
2023/12/15 22:08:13;;;;;;;138.80;66.13;;;;;;;;;;10309694;28;20117;-79
2023/12/15 22:13:14;;;;;;;129.33;62.53;;;;;;;;;;10292358;28;20053;-79
2023/12/15 22:18:17;;;;;;;129.50;62.37;;;;;;;;;;10286684;28;20114;-79
2023/12/15 22:23:18;;;;;;;128.83;61.00;;;;;;;;;;10289560;28;20037;-79
2023/12/15 22:28:19;;;;;;;113.47;55.70;;;;;;;;;;10290469;28;20034;-79
2023/12/15 22:33:20;;;;;;;123.73;59.17;;;;;;;;;;10284641;28;20178;-79
2023/12/15 22:38:21;;;;;;;113.90;56.57;;;;;;;;;;10290543;28;20034;-79
2023/12/15 22:43:22;;;;;;;116.53;53.43;;;;;;;;;;10289193;28;20738;-80
2023/12/15 22:48:24;;;;;;;111.60;53.97;;;;;;;;;;10298102;28;20030;-80
2023/12/15 22:53:25;;;;;;;102.00;49.57;;;;;;;;;;10290921;28;20069;-79
2023/12/15 22:58:26;;;;;;;108.40;51.03;;;;;;;;;;10287969;28;20026;-79
2023/12/15 23:03:28;;;;;;;117.50;57.23;;;;;;;;;;10288373;28;20098;-79
2023/12/15 23:08:35;;;;;;;111.50;51.03;;;;;;;;;;10269838;28;20074;-80
2023/12/15 23:13:36;;;;;;;108.37;52.23;;;;;;;;;;10287965;28;20155;-79
2023/12/15 23:18:37;;;;;;;108.83;52.10;;;;;;;;;;10287477;28;20098;-80
2023/12/15 23:23:38;;;;;;;114.10;52.33;;;;;;;;;;10287801;28;20031;-79
2023/12/15 23:28:39;;;;;;;100.23;46.90;;;;;;;;;;10274261;28;20093;-79
2023/12/15 23:33:40;;;;;;;101.60;47.40;;;;;;;;;;10286831;28;20062;-80
2023/12/15 23:38:41;;;;;;;107.10;48.83;;;;;;;;;;10288283;28;20039;-79
2023/12/15 23:43:43;;;;;;;106.93;48.60;;;;;;;;;;10283148;28;20089;-79
2023/12/15 23:48:44;;;;;;;96.93;45.17;;;;;;;;;;10254958;28;20046;-79
2023/12/15 23:53:45;;;;;;;99.03;44.53;;;;;;;;;;10295253;28;20054;-78
2023/12/15 23:58:47;;;;;;;88.23;42.43;;;;;;;;;;10286217;28;20475;-80
